Haden II — WDF2064 — position and weather

sailwx.info

Track history (hours):
 
Tides and Currents Weather Stations Pressure Air Temp Water Temp Dewpoint Dewpoint Depression Visibility Wind Speed Wind Dir Waves Ship Positions

Haden II

Owner: G & H Towing Company, Galveston, TX. More information available from US FCC via Universal Licensing System and Coast Guard Vessel Documentation Center.

Last reported at 2018-Feb-20 08:06 UTC. Time now 2018-Feb-20 09:58 UTC.
Position N 29°21' W 094°42'.

Length 27 m; draft 4 m.

Type: Sailing vessel. MMSI: 365327268.

Date/timePositionNaut miles runAvg speedWind from/ knotsBaromVisibWave heightAir tempDewpointWater temp
2018-Feb-20 08:06N 29°21' W 094°42'7 0.5
2018-Feb-19 17:34N 29°22' W 094°50'110.0
2018-Feb-19 17:29N 29°22' W 094°51'2 4.2
2018-Feb-19 16:59N 29°22' W 094°53'1 1.0
2018-Feb-19 16:27N 29°23' W 094°53'3 6.0
2018-Feb-19 15:58N 29°22' W 094°50'3 7.5
2018-Feb-19 15:30N 29°20' W 094°46'1 0.2
2018-Feb-19 09:24N 29°19' W 094°47'0 0.0
2018-Feb-19 09:00N 29°19' W 094°47'0 0.0
2018-Feb-19 08:18N 29°19' W 094°47'0 0.0
2018-Feb-19 07:39N 29°19' W 094°47'0 0.0
2018-Feb-19 07:21N 29°19' W 094°47'7 0.5
2018-Feb-18 18:56N 29°23' W 094°54'4 8.4
2018-Feb-18 18:28N 29°22' W 094°49'3 0.2
2018-Feb-17 23:25N 29°19' W 094°47'1 0.9
2018-Feb-17 22:15N 29°19' W 094°48'0 0.0
2018-Feb-17 21:56N 29°19' W 094°48'1 1.6
2018-Feb-17 21:26N 29°19' W 094°47'0 0.0
2018-Feb-17 05:24N 29°19' W 094°47'0 0.0
2018-Feb-17 02:36N 29°19' W 094°47'0 0.0
2018-Feb-17 02:06N 29°19' W 094°47'0 0.0
2018-Feb-17 01:51N 29°19' W 094°47'1 1.2
2018-Feb-17 00:42N 29°19' W 094°48'0 0.0
2018-Feb-17 00:15N 29°19' W 094°48'1 1.7
2018-Feb-16 23:53N 29°19' W 094°48'1 1.9
2018-Feb-16 23:24N 29°19' W 094°47'0 0.2
2018-Feb-16 22:18N 29°19' W 094°47'0 0.0
2018-Feb-16 21:52N 29°19' W 094°47'0 0.0
2018-Feb-16 01:40N 29°19' W 094°47'0 0.3
2018-Feb-16 01:28N 29°19' W 094°47'0 0.2
2018-Feb-16 01:00N 29°19' W 094°47'2 0.9
2018-Feb-15 23:14N 29°21' W 094°47'2 8.8
2018-Feb-15 22:59N 29°22' W 094°49'4 3.1
2018-Feb-15 21:40N 29°23' W 094°53'0 0.0
2018-Feb-15 17:07N 29°23' W 094°53'0 0.0
2018-Feb-15 09:38N 29°23' W 094°53'0 0.0
2018-Feb-15 09:29N 29°23' W 094°53'0 0.0
2018-Feb-15 08:53N 29°23' W 094°53'0 0.0
2018-Feb-15 08:17N 29°23' W 094°53'0 0.0
2018-Feb-15 07:08N 29°23' W 094°53'0 0.0
2018-Feb-15 06:59N 29°23' W 094°53'0 0.0
2018-Feb-15 06:23N 29°23' W 094°53'0 0.0
2018-Feb-15 05:50N 29°23' W 094°53'0 0.0
2018-Feb-15 05:23N 29°23' W 094°53'0 0.0
2018-Feb-15 04:56N 29°23' W 094°53'0 0.0
2018-Feb-15 04:29N 29°23' W 094°53'0 0.0
2018-Feb-15 03:59N 29°23' W 094°53'0 0.0
2018-Feb-15 03:11N 29°23' W 094°53'0 0.0
2018-Feb-15 00:47N 29°23' W 094°53'0 0.6
2018-Feb-15 00:24N 29°22' W 094°53'0 0.2
2018-Feb-14 23:58N 29°22' W 094°53'4 3.8
2018-Feb-14 23:02N 29°22' W 094°49'3 9.6
2018-Feb-14 22:43N 29°20' W 094°46'2 0.5
2018-Feb-14 18:58N 29°19' W 094°48'1 1.4
2018-Feb-14 18:30N 29°19' W 094°48'1 1.5
2018-Feb-14 17:32N 29°19' W 094°47'0 0.2
2018-Feb-14 17:18N 29°19' W 094°47'14 0.8
2018-Feb-13 22:33N 29°32' W 094°54'1 9.6
2018-Feb-13 22:28N 29°33' W 094°54'5 9.9
2018-Feb-13 22:00N 29°36' W 094°57'4 7.3
2018-Feb-13 21:30N 29°37' W 095°01'0 0.3
2018-Feb-13 21:00N 29°37' W 095°02'1 2.5
2018-Feb-13 20:30N 29°37' W 095°00'0 0.4
2018-Feb-13 20:00N 29°37' W 094°60'2 4.0
2018-Feb-13 19:30N 29°37' W 094°58'5 9.8
2018-Feb-13 18:59N 29°33' W 094°54'  
Track history (hours):
 
Tides and Currents Weather Stations Pressure Air Temp Water Temp Dewpoint Dewpoint Depression Visibility Wind Speed Wind Dir Waves Ship Positions

Haden II

Owner: G & H Towing Company, Galveston, TX. More information available from US FCC via Universal Licensing System and Coast Guard Vessel Documentation Center.

Last reported at 2018-Feb-20 08:06 UTC. Time now 2018-Feb-20 09:58 UTC.
Position N 29°21' W 094°42'.

Length 27 m; draft 4 m.

Type: Sailing vessel. MMSI: 365327268.

Date/timePositionNaut miles runAvg speedWind from/ knotsBaromVisibWave heightAir tempDewpointWater temp
2018-Feb-20 08:06N 29°21' W 094°42'7 0.5
2018-Feb-19 17:34N 29°22' W 094°50'110.0
2018-Feb-19 17:29N 29°22' W 094°51'2 4.2
2018-Feb-19 16:59N 29°22' W 094°53'1 1.0
2018-Feb-19 16:27N 29°23' W 094°53'3 6.0
2018-Feb-19 15:58N 29°22' W 094°50'3 7.5
2018-Feb-19 15:30N 29°20' W 094°46'1 0.2
2018-Feb-19 09:24N 29°19' W 094°47'0 0.0
2018-Feb-19 09:00N 29°19' W 094°47'0 0.0
2018-Feb-19 08:18N 29°19' W 094°47'0 0.0
2018-Feb-19 07:39N 29°19' W 094°47'0 0.0
2018-Feb-19 07:21N 29°19' W 094°47'7 0.5
2018-Feb-18 18:56N 29°23' W 094°54'4 8.4
2018-Feb-18 18:28N 29°22' W 094°49'3 0.2
2018-Feb-17 23:25N 29°19' W 094°47'1 0.9
2018-Feb-17 22:15N 29°19' W 094°48'0 0.0
2018-Feb-17 21:56N 29°19' W 094°48'1 1.6
2018-Feb-17 21:26N 29°19' W 094°47'0 0.0
2018-Feb-17 05:24N 29°19' W 094°47'0 0.0
2018-Feb-17 02:36N 29°19' W 094°47'0 0.0
2018-Feb-17 02:06N 29°19' W 094°47'0 0.0
2018-Feb-17 01:51N 29°19' W 094°47'1 1.2
2018-Feb-17 00:42N 29°19' W 094°48'0 0.0
2018-Feb-17 00:15N 29°19' W 094°48'1 1.7
2018-Feb-16 23:53N 29°19' W 094°48'1 1.9
2018-Feb-16 23:24N 29°19' W 094°47'0 0.2
2018-Feb-16 22:18N 29°19' W 094°47'0 0.0
2018-Feb-16 21:52N 29°19' W 094°47'0 0.0
2018-Feb-16 01:40N 29°19' W 094°47'0 0.3
2018-Feb-16 01:28N 29°19' W 094°47'0 0.2
2018-Feb-16 01:00N 29°19' W 094°47'2 0.9
2018-Feb-15 23:14N 29°21' W 094°47'2 8.8
2018-Feb-15 22:59N 29°22' W 094°49'4 3.1
2018-Feb-15 21:40N 29°23' W 094°53'0 0.0
2018-Feb-15 17:07N 29°23' W 094°53'0 0.0
2018-Feb-15 09:38N 29°23' W 094°53'0 0.0
2018-Feb-15 09:29N 29°23' W 094°53'0 0.0
2018-Feb-15 08:53N 29°23' W 094°53'0 0.0
2018-Feb-15 08:17N 29°23' W 094°53'0 0.0
2018-Feb-15 07:08N 29°23' W 094°53'0 0.0
2018-Feb-15 06:59N 29°23' W 094°53'0 0.0
2018-Feb-15 06:23N 29°23' W 094°53'0 0.0
2018-Feb-15 05:50N 29°23' W 094°53'0 0.0
2018-Feb-15 05:23N 29°23' W 094°53'0 0.0
2018-Feb-15 04:56N 29°23' W 094°53'0 0.0
2018-Feb-15 04:29N 29°23' W 094°53'0 0.0
2018-Feb-15 03:59N 29°23' W 094°53'0 0.0
2018-Feb-15 03:11N 29°23' W 094°53'0 0.0
2018-Feb-15 00:47N 29°23' W 094°53'0 0.6
2018-Feb-15 00:24N 29°22' W 094°53'0 0.2
2018-Feb-14 23:58N 29°22' W 094°53'4 3.8
2018-Feb-14 23:02N 29°22' W 094°49'3 9.6
2018-Feb-14 22:43N 29°20' W 094°46'2 0.5
2018-Feb-14 18:58N 29°19' W 094°48'1 1.4
2018-Feb-14 18:30N 29°19' W 094°48'1 1.5
2018-Feb-14 17:32N 29°19' W 094°47'0 0.2
2018-Feb-14 17:18N 29°19' W 094°47'14 0.8
2018-Feb-13 22:33N 29°32' W 094°54'1 9.6
2018-Feb-13 22:28N 29°33' W 094°54'5 9.9
2018-Feb-13 22:00N 29°36' W 094°57'4 7.3
2018-Feb-13 21:30N 29°37' W 095°01'0 0.3
2018-Feb-13 21:00N 29°37' W 095°02'1 2.5
2018-Feb-13 20:30N 29°37' W 095°00'0 0.4
2018-Feb-13 20:00N 29°37' W 094°60'2 4.0
2018-Feb-13 19:30N 29°37' W 094°58'5 9.8
2018-Feb-13 18:59N 29°33' W 094°54'  

Dump ship's entire track history